createdAt,value
2019-05-19T00:00:14.255Z,95925.51
2019-05-19T00:02:43.936Z,95923.69
2019-05-19T00:05:13.605Z,95916.06
2019-05-19T00:07:43.012Z,95917.47
2019-05-19T00:10:12.540Z,95914.32
2019-05-19T00:12:41.882Z,95920.12
2019-05-19T00:15:11.326Z,95925.09
2019-05-19T00:17:40.776Z,95921.39
2019-05-19T00:20:10.233Z,95920.44
2019-05-19T00:22:39.688Z,95918.52
2019-05-19T00:25:09.139Z,95921.70
2019-05-19T00:27:38.553Z,95922.56
2019-05-19T00:30:08.111Z,95919.23
2019-05-19T00:32:37.484Z,95920.92
2019-05-19T00:35:07.200Z,95917.83
2019-05-19T00:37:36.676Z,95917.33
2019-05-19T00:40:06.167Z,95913.95
2019-05-19T00:42:35.530Z,95911.84
2019-05-19T00:45:06.330Z,95910.20
2019-05-19T00:47:35.803Z,95908.52
2019-05-19T00:50:06.022Z,95908.06
2019-05-19T00:52:35.483Z,95905.23
2019-05-19T00:55:05.144Z,95901.98
2019-05-19T00:57:34.684Z,95900.75
2019-05-19T01:00:04.631Z,95901.63
2019-05-19T01:02:33.998Z,95898.98
2019-05-19T01:05:03.722Z,95897.38
2019-05-19T01:07:33.101Z,95901.89
2019-05-19T01:10:02.472Z,95899.47
2019-05-19T01:12:31.951Z,95906.44
2019-05-19T01:15:01.352Z,95902.55
2019-05-19T01:17:30.716Z,95906.66
2019-05-19T01:20:00.363Z,95907.34
2019-05-19T01:22:30.256Z,95901.59
2019-05-19T01:24:59.611Z,95897.48
2019-05-19T01:27:28.984Z,95902.16
2019-05-19T01:29:58.348Z,95911.45
2019-05-19T01:32:27.777Z,95908.80
2019-05-19T01:34:57.329Z,95903.84
2019-05-19T01:37:26.746Z,95899.23
2019-05-19T01:39:56.508Z,95902.23
2019-05-19T01:42:26.043Z,95904.38
2019-05-19T01:44:55.815Z,95913.34
2019-05-19T01:47:25.227Z,95912.02
2019-05-19T01:49:54.663Z,95915.19
2019-05-19T01:52:24.119Z,95909.55
2019-05-19T01:54:53.499Z,95895.15
2019-05-19T01:57:22.903Z,95897.80
2019-05-19T01:59:52.353Z,95905.88
2019-05-19T02:02:21.860Z,95898.80
2019-05-19T02:04:51.202Z,95903.14
2019-05-19T02:07:20.610Z,95899.19
2019-05-19T02:09:50.071Z,95905.50
2019-05-19T02:12:19.827Z,95904.35
2019-05-19T02:14:49.189Z,95898.42
2019-05-19T02:17:18.536Z,95898.53
2019-05-19T02:19:47.934Z,95900.47
2019-05-19T02:22:17.402Z,95899.33
2019-05-19T02:24:46.842Z,95914.08
2019-05-19T02:27:16.436Z,95900.03
2019-05-19T02:29:45.764Z,95904.82
2019-05-19T02:32:15.169Z,95899.21
2019-05-19T02:34:44.528Z,95908.17
2019-05-19T02:37:13.955Z,95905.80
2019-05-19T02:39:43.319Z,95903.15
2019-05-19T02:42:12.836Z,95909.78
2019-05-19T02:44:45.467Z,95911.55
2019-05-19T02:47:15.446Z,95914.94
2019-05-19T02:49:46.212Z,95919.91
2019-05-19T02:52:15.651Z,95921.10
2019-05-19T02:54:45.333Z,95906.84
2019-05-19T02:57:15.006Z,95924.80
2019-05-19T02:59:44.622Z,95919.59
2019-05-19T03:02:14.976Z,95924.68
2019-05-19T03:04:44.566Z,95928.14
2019-05-19T03:07:14.076Z,95928.02
2019-05-19T03:09:43.631Z,95929.15
2019-05-19T03:12:13.201Z,95923.53
2019-05-19T03:14:42.722Z,95925.02
2019-05-19T03:17:12.268Z,95923.05
2019-05-19T03:19:41.760Z,95923.87
2019-05-19T03:22:11.300Z,95925.02
2019-05-19T03:24:40.773Z,95925.02
2019-05-19T03:27:10.347Z,95928.14
2019-05-19T03:29:44.088Z,95928.69
2019-05-19T03:32:26.663Z,95936.95
2019-05-19T03:34:56.158Z,95933.98
2019-05-19T03:37:25.629Z,95933.30
2019-05-19T03:39:55.509Z,95937.61
2019-05-19T03:42:25.021Z,95946.54
2019-05-19T03:44:54.514Z,95946.87
2019-05-19T03:47:23.999Z,95945.59
2019-05-19T03:49:53.489Z,95945.59
2019-05-19T03:52:22.994Z,95941.80
2019-05-19T03:54:52.475Z,95938.16
2019-05-19T03:57:21.960Z,95938.31
2019-05-19T03:59:51.595Z,95941.30
2019-05-19T04:02:21.077Z,95943.28
2019-05-19T04:04:50.567Z,95939.47
2019-05-19T04:07:20.212Z,95936.98
2019-05-19T04:09:50.600Z,95934.67
2019-05-19T04:12:20.214Z,95935.50
2019-05-19T04:14:49.768Z,95934.34
2019-05-19T04:17:19.382Z,95936.98
2019-05-19T04:19:48.951Z,95931.53
2019-05-19T04:22:18.517Z,95927.39
2019-05-19T04:24:48.074Z,95928.71
2019-05-19T04:27:17.558Z,95933.66
2019-05-19T04:29:47.119Z,95935.48
2019-05-19T04:32:16.699Z,95928.22
2019-05-19T04:34:46.313Z,95936.27
2019-05-19T04:37:15.871Z,95941.89
2019-05-19T04:39:45.438Z,95941.73
2019-05-19T04:42:14.977Z,95939.59
2019-05-19T04:44:44.650Z,95939.91
2019-05-19T04:47:14.119Z,95941.23
2019-05-19T04:49:43.608Z,95947.48
2019-05-19T04:52:13.190Z,95942.86
2019-05-19T04:54:42.741Z,95942.52
2019-05-19T04:57:12.334Z,95942.48
2019-05-19T04:59:41.847Z,95944.78
2019-05-19T05:02:11.461Z,95949.67
2019-05-19T05:04:40.995Z,95948.06
2019-05-19T05:07:10.613Z,95949.52
2019-05-19T05:09:40.100Z,95942.91
2019-05-19T05:12:09.628Z,95944.86
2019-05-19T05:14:39.204Z,95945.48
2019-05-19T05:17:08.797Z,95947.46
2019-05-19T05:19:38.267Z,95954.55
2019-05-19T05:22:21.214Z,95949.44
2019-05-19T05:24:39.084Z,95946.41
2019-05-19T05:27:08.510Z,95947.90
2019-05-19T05:29:37.968Z,95947.58
2019-05-19T05:32:07.390Z,95948.88
2019-05-19T05:34:36.887Z,95945.54
2019-05-19T05:37:06.361Z,95943.06
2019-05-19T05:39:35.844Z,95945.47
2019-05-19T05:42:05.366Z,95939.20
2019-05-19T05:44:34.816Z,95946.94
2019-05-19T05:47:04.783Z,95946.98
2019-05-19T05:49:34.227Z,95945.28
2019-05-19T05:52:03.714Z,95943.95
2019-05-19T05:54:33.312Z,95945.06
2019-05-19T05:57:02.774Z,95949.13
2019-05-19T05:59:32.209Z,95946.20
2019-05-19T06:02:01.682Z,95950.83
2019-05-19T06:04:31.125Z,95941.88
2019-05-19T06:07:00.557Z,95947.25
2019-05-19T06:09:30.084Z,95947.11
2019-05-19T06:11:59.542Z,95953.22
2019-05-19T06:14:29.042Z,95949.75
2019-05-19T06:16:58.582Z,95947.61
2019-05-19T06:19:28.038Z,95951.10
2019-05-19T06:21:57.503Z,95952.79
2019-05-19T06:24:27.035Z,95949.07
2019-05-19T06:26:56.558Z,95953.41
2019-05-19T06:29:26.088Z,95960.30
2019-05-19T06:31:59.430Z,95959.80
2019-05-19T06:34:29.271Z,95964.73
2019-05-19T06:36:58.741Z,95962.46
2019-05-19T06:39:28.246Z,95963.13
2019-05-19T06:41:57.715Z,95965.05
2019-05-19T06:44:27.231Z,95965.64
2019-05-19T06:46:56.844Z,95959.89
2019-05-19T06:49:26.302Z,95960.34
2019-05-19T06:51:55.739Z,95964.23
2019-05-19T06:54:25.245Z,95957.24
2019-05-19T06:56:54.686Z,95962.17
2019-05-19T06:59:24.129Z,95965.09
2019-05-19T07:01:53.622Z,95966.69
2019-05-19T07:04:23.198Z,95965.12
2019-05-19T07:06:53.095Z,95967.91
2019-05-19T07:09:22.725Z,95968.37
2019-05-19T07:11:52.282Z,95975.45
2019-05-19T07:14:21.749Z,95974.94
2019-05-19T07:16:51.591Z,95976.53
2019-05-19T07:19:21.048Z,95975.23
2019-05-19T07:21:50.593Z,95980.89
2019-05-19T07:24:20.426Z,95977.51
2019-05-19T07:26:49.868Z,95973.84
2019-05-19T07:29:19.443Z,95968.55
2019-05-19T07:31:48.962Z,95965.20
2019-05-19T07:34:20.063Z,95965.26
2019-05-19T07:36:49.671Z,95956.74
2019-05-19T07:39:19.217Z,95953.02
2019-05-19T07:41:54.468Z,95951.19
2019-05-19T07:44:24.005Z,95948.68
2019-05-19T07:46:56.807Z,95952.22
2019-05-19T07:49:29.394Z,95953.05
2019-05-19T07:51:59.227Z,95956.33
2019-05-19T07:54:28.930Z,95956.58
2019-05-19T07:56:59.048Z,95958.60
2019-05-19T07:59:29.152Z,95956.64
2019-05-19T08:01:58.946Z,95962.33
2019-05-19T08:04:28.995Z,95958.22
2019-05-19T08:06:58.422Z,95956.58
2019-05-19T08:09:27.970Z,95955.95
2019-05-19T08:11:57.481Z,95959.16
2019-05-19T08:14:27.031Z,95957.33
2019-05-19T08:16:59.533Z,95947.84
2019-05-19T08:19:30.158Z,95944.49
2019-05-19T08:21:59.665Z,95946.64
2019-05-19T08:24:29.312Z,95948.29
2019-05-19T08:26:58.738Z,95940.88
2019-05-19T08:29:28.241Z,95944.86
2019-05-19T08:31:57.703Z,95940.06
2019-05-19T08:34:27.143Z,95939.80
2019-05-19T08:36:56.661Z,95938.28
2019-05-19T08:39:26.086Z,95935.23
2019-05-19T08:41:55.620Z,95936.81
2019-05-19T08:44:25.199Z,95935.28
2019-05-19T08:46:54.726Z,95940.33
2019-05-19T08:49:24.278Z,95943.39
2019-05-19T08:51:53.830Z,95927.96
2019-05-19T08:54:23.316Z,95931.75
2019-05-19T08:56:52.937Z,95936.99
2019-05-19T08:59:22.479Z,95930.98
2019-05-19T09:01:51.976Z,95932.54
2019-05-19T09:04:21.471Z,95934.45
2019-05-19T09:06:50.977Z,95932.11
2019-05-19T09:09:20.603Z,95938.36
2019-05-19T09:11:50.100Z,95937.46
2019-05-19T09:14:19.628Z,95929.09
2019-05-19T09:16:52.186Z,95929.53
2019-05-19T09:19:21.673Z,95929.44
2019-05-19T09:21:51.246Z,95919.03
2019-05-19T09:24:30.120Z,95920.32
2019-05-19T09:26:51.886Z,95924.91
2019-05-19T09:29:21.337Z,95932.97
2019-05-19T09:31:51.083Z,95928.70
2019-05-19T09:34:20.538Z,95929.41
2019-05-19T09:36:49.906Z,95924.70
2019-05-19T09:39:19.248Z,95924.81
2019-05-19T09:41:48.605Z,95933.33
2019-05-19T09:44:17.949Z,95930.16
2019-05-19T09:46:47.383Z,95923.53
2019-05-19T09:49:32.743Z,95921.09
2019-05-19T09:52:02.900Z,95921.48
2019-05-19T09:54:44.158Z,95926.72
2019-05-19T09:57:03.513Z,95917.34
2019-05-19T09:59:32.938Z,95919.22
2019-05-19T10:02:02.305Z,95911.66
2019-05-19T10:04:31.659Z,95917.59
2019-05-19T10:07:01.525Z,95915.34
2019-05-19T10:09:45.641Z,95917.73
2019-05-19T10:12:15.085Z,95913.42
2019-05-19T10:14:44.779Z,95910.73
2019-05-19T10:17:14.222Z,95908.89
2019-05-19T10:19:43.641Z,95907.66
2019-05-19T10:22:13.094Z,95904.19
2019-05-19T10:24:59.275Z,95899.16
2019-05-19T10:27:14.341Z,95897.83
2019-05-19T10:29:43.793Z,95897.72
2019-05-19T10:32:13.274Z,95904.97
2019-05-19T10:34:42.673Z,95900.37
2019-05-19T10:37:31.193Z,95895.75
2019-05-19T10:40:11.149Z,95895.33
2019-05-19T10:42:37.719Z,95892.23
2019-05-19T10:45:07.979Z,95892.66
2019-05-19T10:47:37.418Z,95890.85
2019-05-19T10:50:07.008Z,95888.58
2019-05-19T10:52:36.460Z,95888.22
2019-05-19T10:55:06.096Z,95892.52
2019-05-19T10:57:35.591Z,95892.20
2019-05-19T11:00:06.610Z,95880.16
2019-05-19T11:02:36.101Z,95882.53
2019-05-19T11:05:06.010Z,95883.39
2019-05-19T11:07:35.448Z,95879.34
2019-05-19T11:10:05.319Z,95873.48
2019-05-19T11:12:34.757Z,95871.16
2019-05-19T11:15:04.833Z,95870.46
2019-05-19T11:17:34.287Z,95878.64
2019-05-19T11:20:03.776Z,95859.98
2019-05-19T11:22:33.210Z,95863.22
2019-05-19T11:25:02.661Z,95859.33
2019-05-19T11:27:32.078Z,95859.38
2019-05-19T11:30:01.493Z,95859.22
2019-05-19T11:32:31.179Z,95861.54
2019-05-19T11:35:00.664Z,95862.32
2019-05-19T11:37:30.068Z,95850.21
2019-05-19T11:39:59.635Z,95848.13
2019-05-19T11:42:29.179Z,95845.41
2019-05-19T11:44:58.622Z,95844.00
2019-05-19T11:47:27.988Z,95842.79
2019-05-19T11:49:57.340Z,95833.38
2019-05-19T11:52:26.690Z,95844.08
2019-05-19T11:54:56.047Z,95843.03
2019-05-19T11:57:25.409Z,95840.37
2019-05-19T11:59:54.844Z,95830.39
2019-05-19T12:02:24.183Z,95834.54
2019-05-19T12:04:53.584Z,95832.97
2019-05-19T12:07:22.934Z,95826.31
2019-05-19T12:09:52.428Z,95822.83
2019-05-19T12:12:21.772Z,95820.23
2019-05-19T12:14:51.207Z,95822.17
2019-05-19T12:17:20.613Z,95816.00
2019-05-19T12:19:50.112Z,95818.68
2019-05-19T12:22:19.485Z,95822.78
2019-05-19T12:24:48.853Z,95810.34
2019-05-19T12:27:18.371Z,95814.37
2019-05-19T12:29:47.926Z,95808.08
2019-05-19T12:32:17.347Z,95812.97
2019-05-19T12:34:46.773Z,95812.75
2019-05-19T12:37:16.156Z,95810.44
2019-05-19T12:39:45.652Z,95813.33
2019-05-19T12:42:15.134Z,95813.58
2019-05-19T12:44:44.581Z,95817.56
2019-05-19T12:47:14.061Z,95817.10
2019-05-19T12:49:43.540Z,95811.45
2019-05-19T12:52:13.073Z,95805.91
2019-05-19T12:54:42.709Z,95810.17
2019-05-19T12:57:12.210Z,95804.61
2019-05-19T12:59:41.712Z,95799.98
2019-05-19T13:02:12.775Z,95796.16
2019-05-19T13:04:42.218Z,95810.40
2019-05-19T13:07:11.639Z,95804.17
2019-05-19T13:09:41.216Z,95800.14
2019-05-19T13:12:10.811Z,95798.78
2019-05-19T13:14:40.544Z,95788.05
2019-05-19T13:17:10.079Z,95789.59
2019-05-19T13:19:41.002Z,95783.59
2019-05-19T13:22:10.729Z,95774.25
2019-05-19T13:24:40.419Z,95774.25
2019-05-19T13:27:09.958Z,95774.62
2019-05-19T13:29:39.523Z,95770.59
2019-05-19T13:32:09.146Z,95771.41
2019-05-19T13:34:38.670Z,95757.68
2019-05-19T13:37:08.331Z,95758.48
2019-05-19T13:39:37.890Z,95753.03
2019-05-19T13:42:07.446Z,95752.34
2019-05-19T13:44:37.115Z,95752.19
2019-05-19T13:47:06.754Z,95759.47
2019-05-19T13:49:36.378Z,95753.27
2019-05-19T13:52:05.987Z,95746.19
2019-05-19T13:54:35.672Z,95748.13
2019-05-19T13:57:12.432Z,95749.58
2019-05-19T13:59:36.904Z,95737.30
2019-05-19T14:02:06.602Z,95730.83
2019-05-19T14:04:36.430Z,95730.83
2019-05-19T14:07:06.532Z,95731.62
2019-05-19T14:09:36.165Z,95731.62
2019-05-19T14:12:05.904Z,95732.40
2019-05-19T14:14:35.558Z,95724.13
2019-05-19T14:17:05.334Z,95715.19
2019-05-19T14:19:35.135Z,95710.31
2019-05-19T14:22:04.888Z,95706.02
2019-05-19T14:24:34.461Z,95708.14
2019-05-19T14:27:04.035Z,95708.14
2019-05-19T14:29:33.750Z,95708.19
2019-05-19T14:32:03.401Z,95708.59
2019-05-19T14:34:33.022Z,95699.13
2019-05-19T14:37:02.723Z,95700.61
2019-05-19T14:39:32.444Z,95693.55
2019-05-19T14:42:05.685Z,95695.57
2019-05-19T14:44:35.256Z,95695.57
2019-05-19T14:47:05.029Z,95698.38
2019-05-19T14:49:34.749Z,95687.31
2019-05-19T14:52:04.539Z,95688.53
2019-05-19T14:54:34.281Z,95684.50
2019-05-19T14:57:04.096Z,95696.48
2019-05-19T14:59:33.619Z,95688.80
2019-05-19T15:02:03.411Z,95694.81
2019-05-19T15:04:32.954Z,95693.13
2019-05-19T15:07:02.572Z,95693.13
2019-05-19T15:09:32.226Z,95686.48
2019-05-19T15:12:01.952Z,95693.04
2019-05-19T15:14:31.700Z,95702.64
2019-05-19T15:17:01.282Z,95696.25
2019-05-19T15:19:30.969Z,95696.70
2019-05-19T15:22:00.632Z,95693.11
2019-05-19T15:24:30.162Z,95700.11
2019-05-19T15:26:59.954Z,95690.94
2019-05-19T15:29:29.750Z,95699.16
2019-05-19T15:31:59.405Z,95698.85
2019-05-19T15:34:28.918Z,95696.19
2019-05-19T15:36:58.716Z,95692.18
2019-05-19T15:39:28.425Z,95696.36
2019-05-19T15:41:57.968Z,95696.58
2019-05-19T15:44:27.627Z,95693.23
2019-05-19T15:46:57.352Z,95693.20
2019-05-19T15:49:26.898Z,95693.20
2019-05-19T15:52:02.763Z,95679.13
2019-05-19T15:54:27.981Z,95687.38
2019-05-19T15:56:57.558Z,95681.66
2019-05-19T15:59:27.073Z,95672.19
2019-05-19T16:01:56.623Z,95679.17
2019-05-19T16:04:26.245Z,95679.17
2019-05-19T16:06:55.884Z,95682.34
2019-05-19T16:09:25.423Z,95673.17
2019-05-19T16:11:55.036Z,95677.65
2019-05-19T16:14:24.676Z,95679.09
2019-05-19T16:16:54.343Z,95688.91
2019-05-19T16:19:23.981Z,95688.91
2019-05-19T16:21:53.522Z,95676.70
2019-05-19T16:24:23.083Z,95684.53
2019-05-19T16:26:52.691Z,95671.49
2019-05-19T16:29:22.210Z,95666.89
2019-05-19T16:31:51.751Z,95677.05
2019-05-19T16:34:21.371Z,95677.05
2019-05-19T16:36:50.973Z,95675.34
2019-05-19T16:39:20.580Z,95673.77
2019-05-19T16:41:50.199Z,95673.77
2019-05-19T16:44:19.797Z,95675.86
2019-05-19T16:46:49.529Z,95677.52
2019-05-19T16:49:19.238Z,95669.48
2019-05-19T16:51:48.749Z,95676.73
2019-05-19T16:54:23.548Z,95675.90
2019-05-19T16:56:53.164Z,95677.92
2019-05-19T16:59:22.867Z,95679.27
2019-05-19T17:01:52.714Z,95679.80
2019-05-19T17:04:22.348Z,95680.77
2019-05-19T17:06:52.033Z,95686.86
2019-05-19T17:09:21.592Z,95688.91
2019-05-19T17:11:51.129Z,95688.30
2019-05-19T17:14:20.733Z,95686.33
2019-05-19T17:16:50.459Z,95684.56
2019-05-19T17:19:20.047Z,95687.98
2019-05-19T17:21:50.050Z,95687.81
2019-05-19T17:24:19.905Z,95688.14
2019-05-19T17:26:52.631Z,95692.46
2019-05-19T17:29:22.164Z,95690.71
2019-05-19T17:32:04.018Z,95697.51
2019-05-19T17:34:23.250Z,95706.78
2019-05-19T17:36:52.922Z,95705.31
2019-05-19T17:39:22.496Z,95709.69
2019-05-19T17:41:52.181Z,95708.53
2019-05-19T17:44:21.790Z,95715.53
2019-05-19T17:46:51.660Z,95716.02
2019-05-19T17:49:21.197Z,95724.02
2019-05-19T17:51:50.884Z,95727.18
2019-05-19T17:54:20.540Z,95737.91
2019-05-19T17:56:51.613Z,95727.68
2019-05-19T17:59:21.649Z,95731.31
2019-05-19T18:01:51.378Z,95724.09
2019-05-19T18:04:20.982Z,95729.82
2019-05-19T18:06:50.720Z,95728.22
2019-05-19T18:09:20.283Z,95730.63
2019-05-19T18:11:49.905Z,95722.86
2019-05-19T18:14:19.722Z,95723.27
2019-05-19T18:16:49.336Z,95725.48
2019-05-19T18:19:19.027Z,95715.99
2019-05-19T18:21:48.649Z,95718.03
2019-05-19T18:24:18.183Z,95721.00
2019-05-19T18:26:54.308Z,95726.19
2019-05-19T18:29:30.533Z,95726.89
2019-05-19T18:31:50.647Z,95731.16
2019-05-19T18:34:20.258Z,95731.89
2019-05-19T18:36:49.779Z,95735.64
2019-05-19T18:39:19.996Z,95738.17
2019-05-19T18:41:49.583Z,95736.56
2019-05-19T18:44:19.171Z,95733.36
2019-05-19T18:46:50.494Z,95729.62
2019-05-19T18:49:20.125Z,95729.50
2019-05-19T18:51:49.777Z,95725.55
2019-05-19T18:54:19.553Z,95723.27
2019-05-19T18:56:51.228Z,95727.91
2019-05-19T18:59:20.983Z,95719.55
2019-05-19T19:01:50.666Z,95725.30
2019-05-19T19:04:20.271Z,95728.53
2019-05-19T19:06:49.885Z,95727.33
2019-05-19T19:09:19.527Z,95737.44
2019-05-19T19:11:49.139Z,95733.23
2019-05-19T19:14:18.665Z,95734.56
2019-05-19T19:16:48.392Z,95745.66
2019-05-19T19:19:17.995Z,95752.14
2019-05-19T19:21:47.711Z,95756.75
2019-05-19T19:24:17.316Z,95757.11
2019-05-19T19:26:46.920Z,95760.89
2019-05-19T19:29:16.579Z,95767.83
2019-05-19T19:31:48.530Z,95770.28
2019-05-19T19:34:17.572Z,95764.83
2019-05-19T19:36:47.308Z,95772.78
2019-05-19T19:39:16.900Z,95777.17
2019-05-19T19:41:46.949Z,95781.11
2019-05-19T19:44:16.959Z,95784.76
2019-05-19T19:46:46.872Z,95784.39
2019-05-19T19:49:16.618Z,95788.63
2019-05-19T19:51:48.731Z,95790.30
2019-05-19T19:54:18.491Z,95791.27
2019-05-19T19:56:49.609Z,95804.64
2019-05-19T19:59:19.143Z,95803.53
2019-05-19T20:01:48.759Z,95805.16
2019-05-19T20:04:18.327Z,95818.16
2019-05-19T20:06:47.982Z,95825.44
2019-05-19T20:09:21.040Z,95824.32
2019-05-19T20:11:48.972Z,95825.57
2019-05-19T20:14:18.550Z,95827.50
2019-05-19T20:16:49.577Z,95830.89
2019-05-19T20:19:19.101Z,95826.83
2019-05-19T20:21:48.630Z,95825.64
2019-05-19T20:24:18.153Z,95817.84
2019-05-19T20:26:47.736Z,95815.69
2019-05-19T20:29:17.247Z,95813.23
2019-05-19T20:31:46.737Z,95822.29
2019-05-19T20:34:16.229Z,95818.28
2019-05-19T20:36:45.737Z,95817.52
2019-05-19T20:39:15.262Z,95810.55
2019-05-19T20:41:44.822Z,95808.75
2019-05-19T20:44:14.309Z,95820.03
2019-05-19T20:46:43.918Z,95818.96
2019-05-19T20:49:13.442Z,95823.31
2019-05-19T20:51:43.260Z,95820.27
2019-05-19T20:54:12.738Z,95809.72
2019-05-19T20:56:42.256Z,95813.42
2019-05-19T20:59:11.786Z,95812.52
2019-05-19T21:01:41.346Z,95805.07
2019-05-19T21:04:10.844Z,95811.45
2019-05-19T21:06:40.348Z,95805.15
2019-05-19T21:09:09.853Z,95805.88
2019-05-19T21:11:39.393Z,95803.64
2019-05-19T21:14:08.893Z,95802.34
2019-05-19T21:16:38.463Z,95806.61
2019-05-19T21:19:08.018Z,95806.48
2019-05-19T21:21:37.538Z,95802.60
2019-05-19T21:24:07.200Z,95802.30
2019-05-19T21:26:36.743Z,95803.25
2019-05-19T21:29:06.220Z,95798.91
2019-05-19T21:31:35.716Z,95801.19
2019-05-19T21:34:05.210Z,95803.34
2019-05-19T21:36:34.802Z,95798.95
2019-05-19T21:39:05.242Z,95805.22
2019-05-19T21:41:34.757Z,95802.26
2019-05-19T21:44:04.821Z,95799.41
2019-05-19T21:46:34.308Z,95798.59
2019-05-19T21:49:03.781Z,95795.53
2019-05-19T21:51:33.354Z,95798.63
2019-05-19T21:54:02.918Z,95789.92
2019-05-19T21:56:32.423Z,95795.47
2019-05-19T21:59:01.923Z,95800.20
2019-05-19T22:01:31.416Z,95794.98
2019-05-19T22:04:00.912Z,95794.59
2019-05-19T22:06:32.132Z,95790.80
2019-05-19T22:09:01.628Z,95797.08
2019-05-19T22:11:31.483Z,95790.05
2019-05-19T22:14:00.984Z,95783.59
2019-05-19T22:16:30.495Z,95791.28
2019-05-19T22:19:00.087Z,95786.37
2019-05-19T22:21:29.659Z,95794.28
2019-05-19T22:23:59.149Z,95786.80
2019-05-19T22:26:28.667Z,95785.07
2019-05-19T22:28:58.164Z,95787.22
2019-05-19T22:31:36.563Z,95790.00
2019-05-19T22:33:58.851Z,95800.27
2019-05-19T22:36:28.334Z,95796.48
2019-05-19T22:38:57.832Z,95792.38
2019-05-19T22:41:27.336Z,95788.80
2019-05-19T22:43:56.901Z,95795.98
2019-05-19T22:46:26.397Z,95795.38
2019-05-19T22:48:55.909Z,95794.25
2019-05-19T22:51:25.405Z,95792.48
2019-05-19T22:53:54.971Z,95794.84
2019-05-19T22:56:24.453Z,95797.51
2019-05-19T22:58:53.949Z,95803.56
2019-05-19T23:01:23.446Z,95807.25
2019-05-19T23:03:52.963Z,95806.55
2019-05-19T23:06:22.534Z,95809.20
2019-05-19T23:08:52.186Z,95813.41
2019-05-19T23:11:21.680Z,95814.44
2019-05-19T23:13:51.303Z,95818.64
2019-05-19T23:16:20.869Z,95819.77
2019-05-19T23:18:50.371Z,95823.98
2019-05-19T23:21:19.938Z,95813.02
2019-05-19T23:23:49.428Z,95813.84
2019-05-19T23:26:18.922Z,95808.10
2019-05-19T23:28:48.424Z,95809.44
2019-05-19T23:31:17.986Z,95802.17
2019-05-19T23:33:47.478Z,95805.55
2019-05-19T23:36:16.955Z,95801.87
2019-05-19T23:38:46.446Z,95802.89
2019-05-19T23:41:15.929Z,95803.92
2019-05-19T23:43:45.425Z,95804.73
2019-05-19T23:46:14.917Z,95794.09
2019-05-19T23:48:44.431Z,95800.95
2019-05-19T23:51:13.922Z,95801.16
2019-05-19T23:53:43.421Z,95796.95
2019-05-19T23:56:12.980Z,95806.42
2019-05-19T23:58:42.681Z,95812.93
